sensor_id;sensor_type;location;lat;lon;timestamp;pressure;altitude;pressure_sealevel;temperature;humidity
74893;BME280;63446;56.272;43.922;2023-03-25T00:00:54;99650.47;;;9.37;71.90
74893;BME280;63446;56.272;43.922;2023-03-25T00:03:23;99651.06;;;9.34;72.15
74893;BME280;63446;56.272;43.922;2023-03-25T00:05:52;99644.19;;;9.33;72.13
74893;BME280;63446;56.272;43.922;2023-03-25T00:08:18;99647.13;;;9.32;72.07
74893;BME280;63446;56.272;43.922;2023-03-25T00:10:44;99643.16;;;9.29;72.08
74893;BME280;63446;56.272;43.922;2023-03-25T00:13:10;99639.03;;;9.23;72.07
74893;BME280;63446;56.272;43.922;2023-03-25T00:15:42;99634.06;;;9.16;72.30
74893;BME280;63446;56.272;43.922;2023-03-25T00:18:11;99641.72;;;9.13;72.26
74893;BME280;63446;56.272;43.922;2023-03-25T00:20:37;99646.47;;;9.11;72.27
74893;BME280;63446;56.272;43.922;2023-03-25T00:23:08;99647.53;;;9.10;72.31
74893;BME280;63446;56.272;43.922;2023-03-25T00:25:34;99652.81;;;9.10;72.32
74893;BME280;63446;56.272;43.922;2023-03-25T00:27:59;99648.34;;;9.10;72.30
74893;BME280;63446;56.272;43.922;2023-03-25T00:30:25;99657.31;;;9.09;72.21
74893;BME280;63446;56.272;43.922;2023-03-25T00:32:52;99654.13;;;9.12;72.22
74893;BME280;63446;56.272;43.922;2023-03-25T00:35:19;99657.53;;;9.13;72.16
74893;BME280;63446;56.272;43.922;2023-03-25T00:37:45;99660.19;;;9.13;72.27
74893;BME280;63446;56.272;43.922;2023-03-25T00:40:13;99665.97;;;9.15;72.20
74893;BME280;63446;56.272;43.922;2023-03-25T00:42:39;99668.63;;;9.15;72.21
74893;BME280;63446;56.272;43.922;2023-03-25T00:45:12;99654.38;;;9.16;71.96
74893;BME280;63446;56.272;43.922;2023-03-25T00:47:38;99662.28;;;9.16;72.15
74893;BME280;63446;56.272;43.922;2023-03-25T00:50:04;99668.63;;;9.15;71.97
74893;BME280;63446;56.272;43.922;2023-03-25T00:52:30;99663.09;;;9.11;72.01
74893;BME280;63446;56.272;43.922;2023-03-25T00:54:57;99666.25;;;9.13;72.14
74893;BME280;63446;56.272;43.922;2023-03-25T00:57:22;99664.69;;;9.12;72.09
74893;BME280;63446;56.272;43.922;2023-03-25T00:59:48;99665.75;;;9.11;72.04
74893;BME280;63446;56.272;43.922;2023-03-25T01:02:14;99675.22;;;9.12;72.13
74893;BME280;63446;56.272;43.922;2023-03-25T01:04:41;99671.00;;;9.11;72.04
74893;BME280;63446;56.272;43.922;2023-03-25T01:07:10;99655.50;;;9.04;71.91
74893;BME280;63446;56.272;43.922;2023-03-25T01:09:38;99670.50;;;9.09;72.00
74893;BME280;63446;56.272;43.922;2023-03-25T01:12:06;99662.88;;;9.08;72.01
74893;BME280;63446;56.272;43.922;2023-03-25T01:14:33;99670.50;;;9.09;71.96
74893;BME280;63446;56.272;43.922;2023-03-25T01:16:59;99663.66;;;9.08;71.88
74893;BME280;63446;56.272;43.922;2023-03-25T01:19:26;99663.91;;;9.07;72.08
74893;BME280;63446;56.272;43.922;2023-03-25T01:21:52;99664.72;;;9.07;72.15
74893;BME280;63446;56.272;43.922;2023-03-25T01:24:18;99671.03;;;9.06;72.07
74893;BME280;63446;56.272;43.922;2023-03-25T01:26:45;99666.06;;;9.04;72.03
74893;BME280;63446;56.272;43.922;2023-03-25T01:29:13;99668.16;;;9.02;71.92
74893;BME280;63446;56.272;43.922;2023-03-25T01:31:39;99666.09;;;8.99;72.00
74893;BME280;63446;56.272;43.922;2023-03-25T01:34:05;99666.88;;;9.00;71.93
74893;BME280;63446;56.272;43.922;2023-03-25T01:36:32;99666.88;;;8.95;72.06
74893;BME280;63446;56.272;43.922;2023-03-25T01:39:02;99658.75;;;8.91;72.11
74893;BME280;63446;56.272;43.922;2023-03-25T01:41:30;99662.22;;;8.87;72.15
74893;BME280;63446;56.272;43.922;2023-03-25T01:44:04;99659.88;;;8.80;72.19
74893;BME280;63446;56.272;43.922;2023-03-25T01:46:31;99656.53;;;8.69;72.19
74893;BME280;63446;56.272;43.922;2023-03-25T01:48:58;99655.56;;;8.55;72.30
74893;BME280;63446;56.272;43.922;2023-03-25T01:51:32;99654.03;;;8.33;72.51
74893;BME280;63446;56.272;43.922;2023-03-25T01:53:59;99666.22;;;8.24;72.81
74893;BME280;63446;56.272;43.922;2023-03-25T01:56:28;99664.94;;;8.12;73.02
74893;BME280;63446;56.272;43.922;2023-03-25T01:58:58;99669.97;;;7.98;73.27
74893;BME280;63446;56.272;43.922;2023-03-25T02:01:27;99665.28;;;7.85;73.36
74893;BME280;63446;56.272;43.922;2023-03-25T02:03:54;99673.97;;;7.75;73.57
74893;BME280;63446;56.272;43.922;2023-03-25T02:06:32;99679.53;;;7.63;73.80
74893;BME280;63446;56.272;43.922;2023-03-25T02:09:02;99684.53;;;7.54;73.85
74893;BME280;63446;56.272;43.922;2023-03-25T02:11:29;99687.16;;;7.49;73.80
74893;BME280;63446;56.272;43.922;2023-03-25T02:13:58;99684.28;;;7.46;73.82
74893;BME280;63446;56.272;43.922;2023-03-25T02:16:44;99684.81;;;7.43;73.98
74893;BME280;63446;56.272;43.922;2023-03-25T02:27:11;99705.53;;;7.65;73.86
74893;BME280;63446;56.272;43.922;2023-03-25T02:32:35;99710.53;;;7.81;73.75
74893;BME280;63446;56.272;43.922;2023-03-25T02:37:48;99718.41;;;7.92;73.67
74893;BME280;63446;56.272;43.922;2023-03-25T02:40:55;99720.25;;;7.96;73.55
74893;BME280;63446;56.272;43.922;2023-03-25T02:43:33;99716.53;;;8.02;73.40
74893;BME280;63446;56.272;43.922;2023-03-25T02:46:06;99729.94;;;8.06;73.37
74893;BME280;63446;56.272;43.922;2023-03-25T02:48:55;99732.06;;;8.09;73.41
74893;BME280;63446;56.272;43.922;2023-03-25T02:51:35;99733.09;;;8.13;73.23
74893;BME280;63446;56.272;43.922;2023-03-25T02:54:10;99734.66;;;8.14;73.30
74893;BME280;63446;56.272;43.922;2023-03-25T02:56:40;99738.63;;;8.17;73.19
74893;BME280;63446;56.272;43.922;2023-03-25T02:59:10;99732.03;;;8.19;73.15
74893;BME280;63446;56.272;43.922;2023-03-25T03:01:40;99735.44;;;8.20;73.06
74893;BME280;63446;56.272;43.922;2023-03-25T03:04:06;99740.19;;;8.18;73.04
74893;BME280;63446;56.272;43.922;2023-03-25T03:06:37;99733.34;;;8.17;72.99
74893;BME280;63446;56.272;43.922;2023-03-25T03:09:28;99738.06;;;8.15;72.96
74893;BME280;63446;56.272;43.922;2023-03-25T03:18:20;99733.63;;;8.15;72.87
74893;BME280;63446;56.272;43.922;2023-03-25T03:20:57;99738.34;;;8.13;72.75
74893;BME280;63446;56.272;43.922;2023-03-25T03:23:39;99737.28;;;8.14;72.75
74893;BME280;63446;56.272;43.922;2023-03-25T03:26:19;99739.13;;;8.14;72.82
74893;BME280;63446;56.272;43.922;2023-03-25T03:31:28;99748.59;;;8.15;72.83
74893;BME280;63446;56.272;43.922;2023-03-25T03:34:10;99749.94;;;8.17;72.91
74893;BME280;63446;56.272;43.922;2023-03-25T03:36:47;99750.72;;;8.23;72.75
74893;BME280;63446;56.272;43.922;2023-03-25T03:39:22;99752.25;;;8.29;72.65
74893;BME280;63446;56.272;43.922;2023-03-25T03:41:54;99752.53;;;8.32;72.67
74893;BME280;63446;56.272;43.922;2023-03-25T03:44:26;99746.22;;;8.39;72.45
74893;BME280;63446;56.272;43.922;2023-03-25T03:47:17;99744.34;;;8.44;72.38
74893;BME280;63446;56.272;43.922;2023-03-25T03:49:51;99740.66;;;8.50;72.36
74893;BME280;63446;56.272;43.922;2023-03-25T03:52:23;99737.69;;;8.57;72.08
74893;BME280;63446;56.272;43.922;2023-03-25T03:54:57;99743.47;;;8.64;71.98
74893;BME280;63446;56.272;43.922;2023-03-25T03:58:01;99738.16;;;8.74;71.70
74893;BME280;63446;56.272;43.922;2023-03-25T04:00:34;99735.97;;;8.92;71.46
74893;BME280;63446;56.272;43.922;2023-03-25T04:03:45;99735.31;;;9.10;71.24
74893;BME280;63446;56.272;43.922;2023-03-25T04:06:33;99745.25;;;9.23;70.89
74893;BME280;63446;56.272;43.922;2023-03-25T04:11:48;99725.91;;;9.38;70.14
74893;BME280;63446;56.272;43.922;2023-03-25T04:14:17;99730.06;;;9.44;69.94
74893;BME280;63446;56.272;43.922;2023-03-25T04:16:43;99723.22;;;9.43;69.61
74893;BME280;63446;56.272;43.922;2023-03-25T04:19:10;99730.84;;;9.45;69.33
74893;BME280;63446;56.272;43.922;2023-03-25T04:21:43;99739.28;;;9.47;69.21
74893;BME280;63446;56.272;43.922;2023-03-25T04:24:10;99738.25;;;9.43;69.12
74893;BME280;63446;56.272;43.922;2023-03-25T04:26:37;99740.63;;;9.44;68.85
74893;BME280;63446;56.272;43.922;2023-03-25T04:29:04;99747.25;;;9.42;68.67
74893;BME280;63446;56.272;43.922;2023-03-25T04:31:30;99756.97;;;9.41;68.68
74893;BME280;63446;56.272;43.922;2023-03-25T04:33:57;99760.16;;;9.43;68.45
74893;BME280;63446;56.272;43.922;2023-03-25T04:36:24;99755.66;;;9.44;68.37
74893;BME280;63446;56.272;43.922;2023-03-25T04:38:54;99750.09;;;9.45;68.23
74893;BME280;63446;56.272;43.922;2023-03-25T04:41:21;99745.81;;;9.54;68.09
74893;BME280;63446;56.272;43.922;2023-03-25T04:43:48;99744.44;;;9.62;67.90
74893;BME280;63446;56.272;43.922;2023-03-25T04:46:14;99743.28;;;9.73;67.61
74893;BME280;63446;56.272;43.922;2023-03-25T04:48:41;99742.41;;;9.83;67.43
74893;BME280;63446;56.272;43.922;2023-03-25T04:51:11;99734.72;;;9.87;67.28
74893;BME280;63446;56.272;43.922;2023-03-25T04:53:38;99737.34;;;9.87;67.17
74893;BME280;63446;56.272;43.922;2023-03-25T04:56:05;99743.41;;;9.87;66.95
74893;BME280;63446;56.272;43.922;2023-03-25T04:58:32;99738.38;;;9.91;66.95
74893;BME280;63446;56.272;43.922;2023-03-25T05:00:58;99735.88;;;10.05;66.74
74893;BME280;63446;56.272;43.922;2023-03-25T05:03:31;99744.03;;;10.32;66.23
74893;BME280;63446;56.272;43.922;2023-03-25T05:05:57;99736.06;;;10.61;65.97
74893;BME280;63446;56.272;43.922;2023-03-25T05:08:23;99730.19;;;11.21;64.88
74893;BME280;63446;56.272;43.922;2023-03-25T05:10:49;99735.16;;;11.74;64.11
74893;BME280;63446;56.272;43.922;2023-03-25T05:13:17;99726.72;;;12.18;63.00
74893;BME280;63446;56.272;43.922;2023-03-25T05:15:42;99730.03;;;12.52;62.16
74893;BME280;63446;56.272;43.922;2023-03-25T05:18:11;99731.13;;;12.87;61.44
74893;BME280;63446;56.272;43.922;2023-03-25T05:20:39;99737.16;;;13.15;61.04
74893;BME280;63446;56.272;43.922;2023-03-25T05:23:06;99730.72;;;13.83;59.64
74893;BME280;63446;56.272;43.922;2023-03-25T05:25:41;99730.50;;;14.42;58.96
74893;BME280;63446;56.272;43.922;2023-03-25T05:28:08;99728.53;;;15.43;57.18
74893;BME280;63446;56.272;43.922;2023-03-25T05:30:43;99730.03;;;16.17;55.60
74893;BME280;63446;56.272;43.922;2023-03-25T05:33:12;99726.34;;;16.90;54.40
74893;BME280;63446;56.272;43.922;2023-03-25T05:35:41;99722.25;;;17.25;53.55
74893;BME280;63446;56.272;43.922;2023-03-25T05:38:07;99714.75;;;17.40;52.82
74893;BME280;63446;56.272;43.922;2023-03-25T05:40:34;99713.75;;;17.44;52.49
74893;BME280;63446;56.272;43.922;2023-03-25T05:43:02;99713.19;;;17.39;52.27
74893;BME280;63446;56.272;43.922;2023-03-25T05:45:28;99715.50;;;17.28;52.35
74893;BME280;63446;56.272;43.922;2023-03-25T05:47:54;99711.66;;;17.17;52.33
74893;BME280;63446;56.272;43.922;2023-03-25T05:50:21;99717.13;;;17.20;51.92
74893;BME280;63446;56.272;43.922;2023-03-25T05:52:47;99717.38;;;17.27;52.11
74893;BME280;63446;56.272;43.922;2023-03-25T05:55:18;99716.16;;;17.37;51.54
74893;BME280;63446;56.272;43.922;2023-03-25T05:57:44;99705.72;;;17.44;51.49
74893;BME280;63446;56.272;43.922;2023-03-25T06:00:15;99718.91;;;17.49;51.12
74893;BME280;63446;56.272;43.922;2023-03-25T06:02:44;99710.00;;;17.57;51.09
74893;BME280;63446;56.272;43.922;2023-03-25T06:05:11;99701.91;;;17.66;50.94
74893;BME280;63446;56.272;43.922;2023-03-25T06:07:43;99710.16;;;17.73;50.61
74893;BME280;63446;56.272;43.922;2023-03-25T06:10:11;99702.13;;;17.73;50.17
74893;BME280;63446;56.272;43.922;2023-03-25T06:12:38;99693.22;;;17.69;50.48
74893;BME280;63446;56.272;43.922;2023-03-25T06:15:07;99694.25;;;17.77;50.25
74893;BME280;63446;56.272;43.922;2023-03-25T06:17:33;99684.78;;;17.79;50.39
74893;BME280;63446;56.272;43.922;2023-03-25T06:20:08;99691.13;;;17.87;50.07
74893;BME280;63446;56.272;43.922;2023-03-25T06:22:40;99682.81;;;17.89;49.83
74893;BME280;63446;56.272;43.922;2023-03-25T06:25:08;99682.03;;;17.88;49.58
74893;BME280;63446;56.272;43.922;2023-03-25T06:27:35;99677.78;;;17.87;49.57
74893;BME280;63446;56.272;43.922;2023-03-25T06:30:07;99687.25;;;17.97;49.33
74893;BME280;63446;56.272;43.922;2023-03-25T06:32:34;99682.47;;;18.15;49.14
74893;BME280;63446;56.272;43.922;2023-03-25T06:35:00;99684.91;;;18.32;48.66
74893;BME280;63446;56.272;43.922;2023-03-25T06:37:27;99687.34;;;18.49;48.43
74893;BME280;63446;56.272;43.922;2023-03-25T06:39:54;99683.50;;;18.63;48.01
74893;BME280;63446;56.272;43.922;2023-03-25T06:42:22;99674.69;;;18.74;47.59
74893;BME280;63446;56.272;43.922;2023-03-25T06:45:07;99674.88;;;18.82;47.57
74893;BME280;63446;56.272;43.922;2023-03-25T06:47:59;99663.41;;;18.81;47.46
74893;BME280;63446;56.272;43.922;2023-03-25T06:50:26;99661.16;;;18.83;46.79
74893;BME280;63446;56.272;43.922;2023-03-25T06:52:52;99648.13;;;18.82;46.93
74893;BME280;63446;56.272;43.922;2023-03-25T06:55:19;99645.53;;;18.85;46.81
74893;BME280;63446;56.272;43.922;2023-03-25T06:57:44;99655.13;;;18.86;46.80
74893;BME280;63446;56.272;43.922;2023-03-25T07:00:10;99650.22;;;18.88;46.79
74893;BME280;63446;56.272;43.922;2023-03-25T07:02:37;99636.06;;;18.88;46.71
74893;BME280;63446;56.272;43.922;2023-03-25T07:05:05;99635.28;;;18.87;46.67
74893;BME280;63446;56.272;43.922;2023-03-25T07:07:31;99634.16;;;18.88;46.53
74893;BME280;63446;56.272;43.922;2023-03-25T07:09:57;99630.53;;;18.96;46.49
74893;BME280;63446;56.272;43.922;2023-03-25T07:12:23;99639.19;;;19.06;46.56
74893;BME280;63446;56.272;43.922;2023-03-25T07:14:55;99629.69;;;19.08;46.13
74893;BME280;63446;56.272;43.922;2023-03-25T07:17:23;99627.88;;;18.96;46.19
74893;BME280;63446;56.272;43.922;2023-03-25T07:19:50;99619.59;;;18.73;46.54
74893;BME280;63446;56.272;43.922;2023-03-25T07:22:16;99622.56;;;18.44;46.92
74893;BME280;63446;56.272;43.922;2023-03-25T07:24:41;99623.53;;;18.11;47.42
74893;BME280;63446;56.272;43.922;2023-03-25T07:27:11;99620.56;;;17.76;47.63
74893;BME280;63446;56.272;43.922;2023-03-25T07:29:37;99613.94;;;17.49;48.21
74893;BME280;63446;56.272;43.922;2023-03-25T07:32:03;99605.22;;;17.27;48.40
74893;BME280;63446;56.272;43.922;2023-03-25T07:34:29;99601.19;;;17.09;48.48
74893;BME280;63446;56.272;43.922;2023-03-25T07:36:55;99599.47;;;16.92;48.52
74893;BME280;63446;56.272;43.922;2023-03-25T07:39:21;99593.31;;;16.79;48.51
74893;BME280;63446;56.272;43.922;2023-03-25T07:41:50;99602.47;;;16.70;48.56
74893;BME280;63446;56.272;43.922;2023-03-25T07:44:39;99601.09;;;16.64;48.72
74893;BME280;63446;56.272;43.922;2023-03-25T07:47:05;99591.88;;;16.61;48.76
74893;BME280;63446;56.272;43.922;2023-03-25T07:49:31;99581.13;;;16.70;48.77
74893;BME280;63446;56.272;43.922;2023-03-25T07:51:58;99587.00;;;16.84;48.74
74893;BME280;63446;56.272;43.922;2023-03-25T07:54:23;99574.25;;;17.02;48.58
74893;BME280;63446;56.272;43.922;2023-03-25T07:56:50;99583.63;;;17.20;48.17
74893;BME280;63446;56.272;43.922;2023-03-25T07:59:17;99578.09;;;17.38;47.45
74893;BME280;63446;56.272;43.922;2023-03-25T08:01:43;99581.44;;;17.47;47.16
74893;BME280;63446;56.272;43.922;2023-03-25T08:04:08;99575.09;;;17.51;47.10
74893;BME280;63446;56.272;43.922;2023-03-25T08:06:35;99581.22;;;17.64;46.85
74893;BME280;63446;56.272;43.922;2023-03-25T08:09:01;99580.00;;;17.74;46.30
74893;BME280;63446;56.272;43.922;2023-03-25T08:11:26;99566.00;;;17.77;46.50
74893;BME280;63446;56.272;43.922;2023-03-25T08:13:53;99559.88;;;17.76;46.16
74893;BME280;63446;56.272;43.922;2023-03-25T08:16:18;99557.97;;;17.77;46.32
74893;BME280;63446;56.272;43.922;2023-03-25T08:18:44;99548.69;;;17.74;46.25
74893;BME280;63446;56.272;43.922;2023-03-25T08:21:12;99544.00;;;17.71;46.26
74893;BME280;63446;56.272;43.922;2023-03-25T08:23:37;99539.38;;;17.68;45.93
74893;BME280;63446;56.272;43.922;2023-03-25T08:26:04;99530.47;;;17.64;46.35
74893;BME280;63446;56.272;43.922;2023-03-25T08:28:30;99521.22;;;17.62;46.12
74893;BME280;63446;56.272;43.922;2023-03-25T08:30:57;99525.69;;;17.57;46.29
74893;BME280;63446;56.272;43.922;2023-03-25T08:33:24;99519.00;;;17.51;46.08
74893;BME280;63446;56.272;43.922;2023-03-25T08:35:59;99516.56;;;17.46;46.12
74893;BME280;63446;56.272;43.922;2023-03-25T08:38:27;99519.13;;;17.43;46.25
74893;BME280;63446;56.272;43.922;2023-03-25T08:40:59;99505.75;;;17.43;46.38
74893;BME280;63446;56.272;43.922;2023-03-25T08:43:25;99504.31;;;17.45;46.11
74893;BME280;63446;56.272;43.922;2023-03-25T08:45:52;99502.53;;;17.49;45.93
74893;BME280;63446;56.272;43.922;2023-03-25T08:48:18;99492.84;;;17.57;45.99
74893;BME280;63446;56.272;43.922;2023-03-25T08:50:44;99503.81;;;17.68;45.72
74893;BME280;63446;56.272;43.922;2023-03-25T08:53:10;99491.59;;;17.79;45.21
74893;BME280;63446;56.272;43.922;2023-03-25T08:55:35;99489.34;;;17.93;44.86
74893;BME280;63446;56.272;43.922;2023-03-25T08:58:05;99487.53;;;17.97;44.60
74893;BME280;63446;56.272;43.922;2023-03-25T09:00:34;99492.56;;;17.99;44.66
74893;BME280;63446;56.272;43.922;2023-03-25T09:03:03;99492.13;;;17.97;44.51
74893;BME280;63446;56.272;43.922;2023-03-25T09:05:29;99477.53;;;17.94;44.48
74893;BME280;63446;56.272;43.922;2023-03-25T09:07:54;99487.28;;;18.02;44.53
74893;BME280;63446;56.272;43.922;2023-03-25T09:10:20;99485.06;;;18.04;44.51
74893;BME280;63446;56.272;43.922;2023-03-25T09:12:46;99499.75;;;18.11;44.45
74893;BME280;63446;56.272;43.922;2023-03-25T09:15:12;99491.16;;;18.17;44.21
74893;BME280;63446;56.272;43.922;2023-03-25T09:17:38;99492.47;;;18.23;44.18
74893;BME280;63446;56.272;43.922;2023-03-25T09:20:05;99484.28;;;18.32;43.89
74893;BME280;63446;56.272;43.922;2023-03-25T09:22:34;99490.69;;;18.43;43.72
74893;BME280;63446;56.272;43.922;2023-03-25T09:25:00;99482.63;;;18.55;43.81
74893;BME280;63446;56.272;43.922;2023-03-25T09:27:26;99474.00;;;18.62;43.55
74893;BME280;63446;56.272;43.922;2023-03-25T09:29:52;99482.38;;;18.61;43.13
74893;BME280;63446;56.272;43.922;2023-03-25T09:32:17;99466.81;;;18.50;43.31
74893;BME280;63446;56.272;43.922;2023-03-25T09:34:44;99449.19;;;18.34;43.20
74893;BME280;63446;56.272;43.922;2023-03-25T09:37:10;99445.69;;;18.17;43.47
74893;BME280;63446;56.272;43.922;2023-03-25T09:39:36;99441.69;;;17.95;43.78
74893;BME280;63446;56.272;43.922;2023-03-25T09:42:28;99442.63;;;17.75;44.13
74893;BME280;63446;56.272;43.922;2023-03-25T09:47:55;99426.53;;;17.10;44.94
74893;BME280;63446;56.272;43.922;2023-03-25T09:50:23;99417.44;;;16.74;45.55
74893;BME280;63446;56.272;43.922;2023-03-25T09:55:29;99410.00;;;16.01;46.85
74893;BME280;63446;56.272;43.922;2023-03-25T09:58:05;99396.97;;;15.67;47.58
74893;BME280;63446;56.272;43.922;2023-03-25T10:00:45;99406.72;;;15.33;48.27
74893;BME280;63446;56.272;43.922;2023-03-25T10:03:24;99406.91;;;15.07;48.67
74893;BME280;63446;56.272;43.922;2023-03-25T10:06:11;99403.06;;;14.87;49.11
74893;BME280;63446;56.272;43.922;2023-03-25T10:14:27;99392.22;;;14.62;50.21
74893;BME280;63446;56.272;43.922;2023-03-25T10:17:36;99389.38;;;14.68;50.36
74893;BME280;63446;56.272;43.922;2023-03-25T10:20:16;99369.94;;;14.76;50.49
74893;BME280;63446;56.272;43.922;2023-03-25T10:25:16;99340.59;;;14.72;50.75
74893;BME280;63446;56.272;43.922;2023-03-25T10:27:48;99349.78;;;14.75;50.91
74893;BME280;63446;56.272;43.922;2023-03-25T10:32:56;99329.75;;;15.07;50.68
74893;BME280;63446;56.272;43.922;2023-03-25T10:35:34;99315.78;;;15.31;50.41
74893;BME280;63446;56.272;43.922;2023-03-25T10:38:22;99322.78;;;15.56;50.03
74893;BME280;63446;56.272;43.922;2023-03-25T10:40:58;99315.56;;;15.78;49.91
74893;BME280;63446;56.272;43.922;2023-03-25T10:43:31;99295.19;;;16.06;49.70
74893;BME280;63446;56.272;43.922;2023-03-25T10:46:24;99306.47;;;16.36;49.49
74893;BME280;63446;56.272;43.922;2023-03-25T10:48:52;99302.56;;;16.58;49.22
74893;BME280;63446;56.272;43.922;2023-03-25T10:51:21;99313.59;;;16.81;48.88
74893;BME280;63446;56.272;43.922;2023-03-25T10:53:50;99310.69;;;16.87;48.76
74893;BME280;63446;56.272;43.922;2023-03-25T10:56:47;99299.59;;;16.84;48.66
74893;BME280;63446;56.272;43.922;2023-03-25T10:59:22;99293.25;;;16.77;48.79
74893;BME280;63446;56.272;43.922;2023-03-25T11:01:51;99296.13;;;16.72;49.01
74893;BME280;63446;56.272;43.922;2023-03-25T11:04:20;99292.25;;;16.69;49.19
74893;BME280;63446;56.272;43.922;2023-03-25T11:06:52;99287.81;;;16.73;49.31
74893;BME280;63446;56.272;43.922;2023-03-25T11:09:28;99293.16;;;16.73;49.48
74893;BME280;63446;56.272;43.922;2023-03-25T11:11:58;99286.56;;;16.71;49.62
74893;BME280;63446;56.272;43.922;2023-03-25T11:14:27;99273.78;;;16.64;49.54
74893;BME280;63446;56.272;43.922;2023-03-25T11:16:59;99271.69;;;16.57;49.95
74893;BME280;63446;56.272;43.922;2023-03-25T11:19:32;99265.25;;;16.46;49.91
74893;BME280;63446;56.272;43.922;2023-03-25T11:22:15;99265.91;;;16.31;50.20
74893;BME280;63446;56.272;43.922;2023-03-25T11:24:49;99268.00;;;16.25;50.53
74893;BME280;63446;56.272;43.922;2023-03-25T11:27:24;99265.16;;;16.30;50.70
74893;BME280;63446;56.272;43.922;2023-03-25T11:29:56;99276.81;;;16.50;50.54
74893;BME280;63446;56.272;43.922;2023-03-25T11:32:36;99254.22;;;16.72;50.38
74893;BME280;63446;56.272;43.922;2023-03-25T11:35:17;99263.31;;;16.96;49.98
74893;BME280;63446;56.272;43.922;2023-03-25T11:37:53;99273.09;;;17.04;50.13
74893;BME280;63446;56.272;43.922;2023-03-25T11:40:21;99268.78;;;16.99;49.99
74893;BME280;63446;56.272;43.922;2023-03-25T11:42:59;99269.22;;;16.89;50.28
74893;BME280;63446;56.272;43.922;2023-03-25T11:45:33;99249.13;;;16.79;50.33
74893;BME280;63446;56.272;43.922;2023-03-25T11:48:08;99246.78;;;16.66;50.82
74893;BME280;63446;56.272;43.922;2023-03-25T11:50:36;99226.34;;;16.57;50.80
74893;BME280;63446;56.272;43.922;2023-03-25T11:53:03;99219.44;;;16.56;50.90
74893;BME280;63446;56.272;43.922;2023-03-25T11:55:40;99230.13;;;16.56;50.96
74893;BME280;63446;56.272;43.922;2023-03-25T11:58:13;99222.56;;;16.58;51.04
74893;BME280;63446;56.272;43.922;2023-03-25T12:00:44;99222.00;;;16.65;50.95
74893;BME280;63446;56.272;43.922;2023-03-25T12:05:36;99211.22;;;16.62;51.05
74893;BME280;63446;56.272;43.922;2023-03-25T12:08:14;99212.25;;;16.57;51.10
74893;BME280;63446;56.272;43.922;2023-03-25T12:10:48;99216.34;;;16.54;51.27
74893;BME280;63446;56.272;43.922;2023-03-25T12:13:25;99213.22;;;16.52;51.19
74893;BME280;63446;56.272;43.922;2023-03-25T12:19:14;99202.59;;;16.40;51.73
74893;BME280;63446;56.272;43.922;2023-03-25T12:35:54;99180.72;;;15.85;53.26
74893;BME280;63446;56.272;43.922;2023-03-25T12:41:02;99179.09;;;15.60;53.78
74893;BME280;63446;56.272;43.922;2023-03-25T12:48:55;99173.72;;;15.35;54.36
74893;BME280;63446;56.272;43.922;2023-03-25T12:51:34;99169.72;;;15.29;54.80
74893;BME280;63446;56.272;43.922;2023-03-25T13:00:19;99162.22;;;15.10;55.19
74893;BME280;63446;56.272;43.922;2023-03-25T13:05:51;99164.28;;;14.93;55.80
74893;BME280;63446;56.272;43.922;2023-03-25T13:08:31;99162.78;;;14.83;56.12
74893;BME280;63446;56.272;43.922;2023-03-25T13:11:16;99166.63;;;14.73;56.47
74893;BME280;63446;56.272;43.922;2023-03-25T13:13:45;99166.03;;;14.68;57.04
74893;BME280;63446;56.272;43.922;2023-03-25T13:16:19;99168.88;;;14.62;57.55
74893;BME280;63446;56.272;43.922;2023-03-25T13:18:52;99172.81;;;14.56;58.33
74893;BME280;63446;56.272;43.922;2023-03-25T13:21:26;99170.38;;;14.51;58.90
74893;BME280;63446;56.272;43.922;2023-03-25T13:24:04;99168.97;;;14.45;59.99
74893;BME280;63446;56.272;43.922;2023-03-25T13:26:34;99169.94;;;14.40;60.35
74893;BME280;63446;56.272;43.922;2023-03-25T13:29:04;99176.41;;;14.31;60.59
74893;BME280;63446;56.272;43.922;2023-03-25T13:31:42;99173.00;;;14.22;61.28
74893;BME280;63446;56.272;43.922;2023-03-25T13:45:19;99170.63;;;13.61;63.41
74893;BME280;63446;56.272;43.922;2023-03-25T13:50:30;99173.97;;;13.49;64.30
74893;BME280;63446;56.272;43.922;2023-03-25T13:55:36;99179.41;;;13.44;64.94
74893;BME280;63446;56.272;43.922;2023-03-25T14:12:32;99173.03;;;13.19;66.19
74893;BME280;63446;56.272;43.922;2023-03-25T14:15:02;99182.41;;;13.16;66.61
74893;BME280;63446;56.272;43.922;2023-03-25T14:17:29;99183.50;;;13.15;67.27
74893;BME280;63446;56.272;43.922;2023-03-25T14:19:57;99188.31;;;13.13;67.43
74893;BME280;63446;56.272;43.922;2023-03-25T14:22:29;99182.88;;;13.10;66.99
74893;BME280;63446;56.272;43.922;2023-03-25T14:25:01;99198.34;;;13.08;67.28
74893;BME280;63446;56.272;43.922;2023-03-25T14:27:29;99196.63;;;13.03;67.63
74893;BME280;63446;56.272;43.922;2023-03-25T14:30:10;99199.13;;;13.00;67.76
74893;BME280;63446;56.272;43.922;2023-03-25T14:32:43;99203.78;;;12.94;67.80
74893;BME280;63446;56.272;43.922;2023-03-25T14:43:37;99198.00;;;12.75;68.65
74893;BME280;63446;56.272;43.922;2023-03-25T14:57:05;99226.66;;;12.55;69.02
74893;BME280;63446;56.272;43.922;2023-03-25T14:59:39;99227.00;;;12.54;69.18
74893;BME280;63446;56.272;43.922;2023-03-25T15:02:28;99217.28;;;12.49;69.36
74893;BME280;63446;56.272;43.922;2023-03-25T15:07:59;99225.25;;;12.49;69.38
74893;BME280;63446;56.272;43.922;2023-03-25T15:10:39;99229.47;;;12.50;69.54
74893;BME280;63446;56.272;43.922;2023-03-25T15:13:28;99229.47;;;12.50;69.42
74893;BME280;63446;56.272;43.922;2023-03-25T15:16:02;99221.53;;;12.50;69.46
74893;BME280;63446;56.272;43.922;2023-03-25T15:21:10;99227.28;;;12.52;69.18
74893;BME280;63446;56.272;43.922;2023-03-25T15:23:46;99230.41;;;12.54;69.22
74893;BME280;63446;56.272;43.922;2023-03-25T15:40:54;99230.56;;;12.58;68.84